createdAt,value
2023-05-04T00:00:21.173Z,4.10
2023-05-04T00:03:11.112Z,3.60
2023-05-04T00:05:40.865Z,3.60
2023-05-04T00:08:11.972Z,4.50
2023-05-04T00:10:41.789Z,4.70
2023-05-04T00:13:14.316Z,4.90
2023-05-04T00:15:44.827Z,5.90
2023-05-04T00:18:14.696Z,4.80
2023-05-04T00:20:44.296Z,4.60
2023-05-04T00:23:13.894Z,6.30
2023-05-04T00:25:43.437Z,4.80
2023-05-04T00:28:13.160Z,5.40
2023-05-04T00:30:42.740Z,5.70
2023-05-04T00:33:12.679Z,6.30
2023-05-04T00:35:42.054Z,7.20
2023-05-04T00:38:14.014Z,6.50
2023-05-04T00:40:45.825Z,7.40
2023-05-04T00:43:15.460Z,6.90
2023-05-04T00:45:45.725Z,7.50
2023-05-04T00:48:15.885Z,7.80
2023-05-04T00:50:45.740Z,8.10
2023-05-04T00:53:15.618Z,8.20
2023-05-04T00:55:46.719Z,8.50
2023-05-04T00:58:18.703Z,7.60
2023-05-04T01:00:48.209Z,7.70
2023-05-04T01:03:19.394Z,8.10
2023-05-04T01:06:49.053Z,9.00
2023-05-04T01:10:02.430Z,8.20
2023-05-04T01:12:45.334Z,7.90
2023-05-04T01:15:16.472Z,7.80
2023-05-04T01:17:46.656Z,8.50
2023-05-04T01:20:16.368Z,8.50
2023-05-04T01:22:46.119Z,8.20
2023-05-04T01:25:17.021Z,8.60
2023-05-04T01:27:56.586Z,9.30
2023-05-04T01:30:44.203Z,8.70
2023-05-04T01:33:16.424Z,9.50
2023-05-04T01:35:47.164Z,9.00
2023-05-04T01:38:16.822Z,10.40
2023-05-04T01:40:46.363Z,8.80
2023-05-04T01:43:16.542Z,10.50
2023-05-04T01:45:46.244Z,8.10
2023-05-04T01:48:16.670Z,8.70
2023-05-04T01:50:46.339Z,8.60
2023-05-04T01:53:15.766Z,8.10
2023-05-04T01:55:45.328Z,9.60
2023-05-04T01:58:14.930Z,9.10
2023-05-04T02:00:44.861Z,8.70
2023-05-04T02:03:14.454Z,9.90
2023-05-04T02:05:44.233Z,10.10
2023-05-04T02:08:13.875Z,9.40
2023-05-04T02:10:43.300Z,9.10
2023-05-04T02:13:13.659Z,9.30
2023-05-04T02:15:44.267Z,9.80
2023-05-04T02:18:13.942Z,10.60
2023-05-04T02:20:44.582Z,10.50
2023-05-04T02:23:17.060Z,10.30
2023-05-04T02:25:48.080Z,12.80
2023-05-04T02:28:17.594Z,10.00
2023-05-04T02:30:47.208Z,9.90
2023-05-04T02:33:16.743Z,8.90
2023-05-04T02:35:46.473Z,9.00
2023-05-04T02:38:18.721Z,8.50
2023-05-04T02:40:48.415Z,8.30
2023-05-04T02:43:18.011Z,8.90
2023-05-04T02:45:47.610Z,9.00
2023-05-04T02:48:17.195Z,7.90
2023-05-04T02:50:46.664Z,9.20
2023-05-04T02:53:16.444Z,7.50
2023-05-04T02:55:46.874Z,7.40
2023-05-04T02:58:16.463Z,8.70
2023-05-04T03:00:46.012Z,8.40
2023-05-04T03:03:15.712Z,8.60
2023-05-04T03:05:47.046Z,7.30
2023-05-04T03:08:16.647Z,7.30
2023-05-04T03:10:46.288Z,7.80
2023-05-04T03:13:16.835Z,8.70
2023-05-04T03:15:46.839Z,6.90
2023-05-04T03:18:17.924Z,7.00
2023-05-04T03:20:47.985Z,7.60
2023-05-04T03:23:20.686Z,7.40
2023-05-04T03:25:50.855Z,6.80
2023-05-04T03:28:20.505Z,7.90
2023-05-04T03:30:51.005Z,7.90
2023-05-04T03:33:21.044Z,7.20
2023-05-04T03:35:50.908Z,8.10
2023-05-04T03:38:20.691Z,7.50
2023-05-04T03:40:50.262Z,7.60
2023-05-04T03:43:20.397Z,6.30
2023-05-04T03:45:51.642Z,7.80
2023-05-04T03:48:21.868Z,7.70
2023-05-04T03:50:51.572Z,7.80
2023-05-04T03:53:21.799Z,8.60
2023-05-04T03:55:52.358Z,9.00
2023-05-04T03:58:22.454Z,10.20
2023-05-04T04:00:52.666Z,9.10
2023-05-04T04:03:22.814Z,8.20
2023-05-04T04:05:53.150Z,9.10
2023-05-04T04:08:23.446Z,8.30
2023-05-04T04:10:52.903Z,8.40
2023-05-04T04:13:22.588Z,11.40
2023-05-04T04:15:52.101Z,9.00
2023-05-04T04:18:24.156Z,9.10
2023-05-04T04:20:53.867Z,8.90
2023-05-04T04:23:24.989Z,9.70
2023-05-04T04:25:54.496Z,11.60
2023-05-04T04:28:23.895Z,9.70
2023-05-04T04:30:53.452Z,8.50
2023-05-04T04:33:22.849Z,8.60
2023-05-04T04:35:53.423Z,9.20
2023-05-04T04:38:22.952Z,8.90
2023-05-04T04:40:52.906Z,10.90
2023-05-04T04:43:22.300Z,11.20
2023-05-04T04:45:54.050Z,9.90
2023-05-04T04:48:25.555Z,11.40
2023-05-04T04:50:55.070Z,13.30
2023-05-04T04:53:26.841Z,11.10
2023-05-04T04:55:56.239Z,11.00
2023-05-04T04:58:26.721Z,10.10
2023-05-04T05:00:58.529Z,10.10
2023-05-04T05:03:29.812Z,9.00
2023-05-04T05:06:01.866Z,9.80
2023-05-04T05:08:35.039Z,10.90
2023-05-04T05:11:06.298Z,11.30
2023-05-04T05:13:35.993Z,12.60
2023-05-04T05:16:06.351Z,11.10
2023-05-04T05:18:37.156Z,12.70
2023-05-04T05:21:07.577Z,11.50
2023-05-04T05:23:38.275Z,11.80
2023-05-04T05:26:10.628Z,10.30
2023-05-04T05:28:40.100Z,11.20
2023-05-04T05:31:09.908Z,11.90
2023-05-04T05:33:42.412Z,10.30
2023-05-04T05:36:15.743Z,9.90
2023-05-04T05:38:47.849Z,8.20
2023-05-04T05:41:21.474Z,8.80
2023-05-04T05:43:51.206Z,9.10
2023-05-04T05:46:37.164Z,8.40
2023-05-04T05:49:07.588Z,8.70
2023-05-04T05:51:37.329Z,8.90
2023-05-04T05:54:07.370Z,7.90
2023-05-04T05:56:36.819Z,9.50
2023-05-04T05:59:06.473Z,10.10
2023-05-04T06:01:38.498Z,9.30
2023-05-04T06:04:08.082Z,7.80
2023-05-04T06:06:38.218Z,7.60
2023-05-04T06:09:08.283Z,8.40
2023-05-04T06:11:38.747Z,7.80
2023-05-04T06:14:08.321Z,6.80
2023-05-04T06:16:37.914Z,5.80
2023-05-04T06:19:14.985Z,7.20
2023-05-04T06:21:44.588Z,5.70
2023-05-04T06:24:15.365Z,6.30
2023-05-04T06:26:46.567Z,5.90
2023-05-04T06:29:18.491Z,6.30
2023-05-04T06:31:48.493Z,7.10
2023-05-04T06:34:18.920Z,6.00
2023-05-04T06:36:50.620Z,5.80
2023-05-04T06:39:20.239Z,8.10
2023-05-04T06:41:49.858Z,6.30
2023-05-04T06:44:20.473Z,5.90
2023-05-04T06:46:53.881Z,7.40
2023-05-04T06:49:25.305Z,6.50
2023-05-04T06:51:55.497Z,5.70
2023-05-04T06:54:25.380Z,6.60
2023-05-04T06:56:54.864Z,6.10
2023-05-04T06:59:25.073Z,6.50
2023-05-04T07:01:55.776Z,6.10
2023-05-04T07:04:28.603Z,5.70
2023-05-04T07:06:59.732Z,5.40
2023-05-04T07:09:29.461Z,6.10
2023-05-04T07:11:59.050Z,5.70
2023-05-04T07:14:28.683Z,5.80
2023-05-04T07:17:04.812Z,6.00
2023-05-04T07:19:35.073Z,5.30
2023-05-04T07:22:05.682Z,5.30
2023-05-04T07:24:35.323Z,4.40
2023-05-04T07:27:07.782Z,4.60
2023-05-04T07:29:37.594Z,16.00
2023-05-04T07:32:12.093Z,5.90
2023-05-04T07:34:46.230Z,4.40
2023-05-04T07:37:20.028Z,4.50
2023-05-04T07:39:51.625Z,4.20
2023-05-04T07:42:23.752Z,3.60
2023-05-04T07:44:53.388Z,4.50
2023-05-04T07:47:24.786Z,3.60
2023-05-04T07:49:54.315Z,4.70
2023-05-04T07:52:23.887Z,6.00
2023-05-04T07:54:55.622Z,3.80
2023-05-04T08:00:02.674Z,3.90
2023-05-04T08:02:43.886Z,3.70
2023-05-04T08:05:15.097Z,3.90
2023-05-04T08:07:44.795Z,4.40
2023-05-04T08:10:14.600Z,4.10
2023-05-04T08:12:45.017Z,4.30
2023-05-04T08:15:17.808Z,4.60
2023-05-04T08:17:49.283Z,5.50
2023-05-04T08:20:21.668Z,5.80
2023-05-04T08:22:52.305Z,4.90
2023-05-04T08:25:25.621Z,4.80
2023-05-04T08:27:59.601Z,4.50
2023-05-04T08:30:31.906Z,3.90
2023-05-04T08:33:01.925Z,3.60
2023-05-04T08:35:33.014Z,4.10
2023-05-04T08:38:02.625Z,5.20
2023-05-04T08:40:35.238Z,4.10
2023-05-04T08:43:05.403Z,4.20
2023-05-04T08:45:40.887Z,4.40
2023-05-04T08:48:10.815Z,4.50
2023-05-04T08:50:41.409Z,4.00
2023-05-04T08:53:16.600Z,4.60
2023-05-04T08:55:47.837Z,5.30
2023-05-04T08:58:19.317Z,4.80
2023-05-04T09:00:52.870Z,5.10
2023-05-04T09:03:22.500Z,4.30
2023-05-04T09:05:54.452Z,12.20
2023-05-04T09:08:24.272Z,4.70
2023-05-04T09:10:53.951Z,4.00
2023-05-04T09:13:23.383Z,6.00
2023-05-04T09:15:57.969Z,5.40
2023-05-04T09:18:41.663Z,4.80
2023-05-04T09:21:12.251Z,4.70
2023-05-04T09:23:52.232Z,4.20
2023-05-04T09:26:32.161Z,4.50
2023-05-04T09:29:14.204Z,4.40
2023-05-04T09:31:52.849Z,4.50
2023-05-04T09:34:23.394Z,3.90
2023-05-04T09:37:02.929Z,4.10
2023-05-04T09:39:33.285Z,3.50
2023-05-04T09:42:02.876Z,3.50
2023-05-04T09:44:33.256Z,3.20
2023-05-04T09:47:02.940Z,3.70
2023-05-04T09:49:38.323Z,3.20
2023-05-04T09:52:07.932Z,4.00
2023-05-04T09:54:41.846Z,7.60
2023-05-04T09:57:15.642Z,4.80
2023-05-04T09:59:45.094Z,4.20
2023-05-04T10:02:22.445Z,3.30
2023-05-04T10:04:57.629Z,2.90
2023-05-04T10:07:32.669Z,3.00
2023-05-04T10:10:02.382Z,3.50
2023-05-04T10:12:33.098Z,3.20
2023-05-04T10:15:03.694Z,3.50
2023-05-04T10:18:17.895Z,2.20
2023-05-04T10:21:02.628Z,2.70
2023-05-04T10:24:00.681Z,3.00
2023-05-04T10:26:48.430Z,4.10
2023-05-04T10:29:24.154Z,2.50
2023-05-04T10:31:53.898Z,5.50
2023-05-04T10:34:35.560Z,4.00
2023-05-04T10:37:16.251Z,2.70
2023-05-04T10:39:55.444Z,3.10
2023-05-04T10:42:25.163Z,3.90
2023-05-04T10:44:59.451Z,2.40
2023-05-04T10:47:33.668Z,2.80
2023-05-04T10:50:14.663Z,3.50
2023-05-04T10:52:53.995Z,16.60
2023-05-04T10:55:24.809Z,5.90
2023-05-04T10:57:58.446Z,2.20
2023-05-04T11:00:42.495Z,3.10
2023-05-04T11:03:12.985Z,2.50
2023-05-04T11:05:48.652Z,2.60
2023-05-04T11:08:24.387Z,2.60
2023-05-04T11:11:07.792Z,3.00
2023-05-04T11:13:46.437Z,2.50
2023-05-04T11:16:24.742Z,2.30
2023-05-04T11:18:55.462Z,1.80
2023-05-04T11:21:26.650Z,2.20
2023-05-04T11:24:00.557Z,1.90
2023-05-04T11:26:30.104Z,2.30
2023-05-04T11:28:59.929Z,2.60
2023-05-04T11:31:29.328Z,8.10
2023-05-04T11:33:58.906Z,3.00
2023-05-04T11:36:29.389Z,2.70
2023-05-04T11:38:59.299Z,2.60
2023-05-04T11:41:29.958Z,2.60
2023-05-04T11:44:02.013Z,2.70
2023-05-04T11:46:35.674Z,3.20
2023-05-04T11:49:06.816Z,5.80
2023-05-04T11:51:40.609Z,2.80
2023-05-04T11:54:21.840Z,4.80
2023-05-04T11:56:51.239Z,3.30
2023-05-04T11:59:20.818Z,3.70
2023-05-04T12:01:50.378Z,4.70
2023-05-04T12:04:19.824Z,3.10
2023-05-04T12:06:50.454Z,2.70
2023-05-04T12:09:19.906Z,2.80
2023-05-04T12:11:56.793Z,2.90
2023-05-04T12:14:28.527Z,3.70
2023-05-04T12:17:01.936Z,3.10
2023-05-04T12:19:33.013Z,3.40
2023-05-04T12:22:41.199Z,3.50
2023-05-04T12:25:11.649Z,3.10
2023-05-04T12:27:41.974Z,3.50
2023-05-04T12:30:12.654Z,3.10
2023-05-04T12:32:44.409Z,3.70
2023-05-04T12:35:13.963Z,3.10
2023-05-04T12:37:43.587Z,3.40
2023-05-04T12:40:27.805Z,2.30
2023-05-04T12:42:58.874Z,2.30
2023-05-04T12:45:29.231Z,2.40
2023-05-04T12:47:59.569Z,2.60
2023-05-04T12:50:29.272Z,2.50
2023-05-04T12:52:58.846Z,2.30
2023-05-04T12:55:28.520Z,2.10
2023-05-04T12:57:58.335Z,1.90
2023-05-04T13:00:34.051Z,2.00
2023-05-04T13:03:07.112Z,2.20
2023-05-04T13:05:36.772Z,2.70
2023-05-04T13:08:06.114Z,2.20
2023-05-04T13:10:35.973Z,2.40
2023-05-04T13:13:05.339Z,2.30
2023-05-04T13:15:35.488Z,1.70
2023-05-04T13:18:05.100Z,1.90
2023-05-04T13:20:34.705Z,2.10
2023-05-04T13:23:04.026Z,2.00
2023-05-04T13:25:33.547Z,2.50
2023-05-04T13:28:03.460Z,2.00
2023-05-04T13:30:33.023Z,12.60
2023-05-04T13:33:05.680Z,2.20
2023-05-04T13:35:43.730Z,2.40
2023-05-04T13:38:13.864Z,2.30
2023-05-04T13:40:44.662Z,2.90
2023-05-04T13:43:14.189Z,2.70
2023-05-04T13:45:43.565Z,2.70
2023-05-04T13:48:12.962Z,2.60
2023-05-04T13:50:42.290Z,2.90
2023-05-04T13:53:11.731Z,2.70
2023-05-04T13:55:41.280Z,3.00
2023-05-04T13:58:11.264Z,2.30
2023-05-04T14:00:41.196Z,3.80
2023-05-04T14:03:11.884Z,2.10
2023-05-04T14:05:41.693Z,2.80
2023-05-04T14:08:11.209Z,2.90
2023-05-04T14:10:40.647Z,4.10
2023-05-04T14:13:10.305Z,2.90
2023-05-04T14:15:39.771Z,2.30
2023-05-04T14:18:09.276Z,2.00
2023-05-04T14:20:38.852Z,2.60
2023-05-04T14:23:08.196Z,2.40
2023-05-04T14:25:37.569Z,3.00
2023-05-04T14:28:07.022Z,3.10
2023-05-04T14:30:36.915Z,2.90
2023-05-04T14:33:06.401Z,3.30
2023-05-04T14:35:37.724Z,3.50
2023-05-04T14:38:06.998Z,3.90
2023-05-04T14:40:36.549Z,3.20
2023-05-04T14:43:06.042Z,3.00
2023-05-04T14:45:35.491Z,2.80
2023-05-04T14:48:05.439Z,3.60
2023-05-04T14:50:35.666Z,3.90
2023-05-04T14:53:04.985Z,3.20
2023-05-04T14:55:36.767Z,4.10
2023-05-04T14:58:06.103Z,4.80
2023-05-04T15:00:38.341Z,3.30
2023-05-04T15:03:09.661Z,3.50
2023-05-04T15:05:39.574Z,4.30
2023-05-04T15:08:08.917Z,3.60
2023-05-04T15:10:38.262Z,3.70
2023-05-04T15:13:07.755Z,3.80
2023-05-04T15:15:40.693Z,3.40
2023-05-04T15:18:10.312Z,3.00
2023-05-04T15:20:39.848Z,3.80
2023-05-04T15:23:12.709Z,3.70
2023-05-04T15:25:42.752Z,3.50
2023-05-04T15:28:14.385Z,3.70
2023-05-04T15:30:44.352Z,3.40
2023-05-04T15:33:37.697Z,3.10
2023-05-04T15:36:10.323Z,2.90
2023-05-04T15:38:40.069Z,3.10
2023-05-04T15:41:14.481Z,3.70
2023-05-04T15:43:47.464Z,3.20
2023-05-04T15:46:17.110Z,3.50
2023-05-04T15:48:46.453Z,4.00
2023-05-04T15:51:15.981Z,3.60
2023-05-04T15:53:46.755Z,4.00
2023-05-04T15:56:17.115Z,4.20
2023-05-04T15:58:46.678Z,4.50
2023-05-04T16:01:16.771Z,3.50
2023-05-04T16:03:46.326Z,3.70
2023-05-04T16:06:17.598Z,3.70
2023-05-04T16:08:47.616Z,3.90
2023-05-04T16:11:18.162Z,3.10
2023-05-04T16:13:50.385Z,3.80
2023-05-04T16:16:20.015Z,4.10
2023-05-04T16:18:49.591Z,3.50
2023-05-04T16:21:19.761Z,4.60
2023-05-04T16:23:49.978Z,4.30
2023-05-04T16:26:19.749Z,4.40
2023-05-04T16:28:50.574Z,4.40
2023-05-04T16:31:20.189Z,4.50
2023-05-04T16:33:49.751Z,4.50
2023-05-04T16:36:23.570Z,4.20
2023-05-04T16:38:53.383Z,4.40
2023-05-04T16:41:22.961Z,4.30
2023-05-04T16:43:52.580Z,4.60
2023-05-04T16:46:22.957Z,4.10
2023-05-04T16:48:52.610Z,3.90
2023-05-04T16:51:23.359Z,5.10
2023-05-04T16:53:52.715Z,4.10
2023-05-04T16:56:23.401Z,4.50
2023-05-04T16:58:53.052Z,4.70
2023-05-04T17:01:22.389Z,4.70
2023-05-04T17:03:52.186Z,4.20
2023-05-04T17:06:22.747Z,4.30
2023-05-04T17:08:52.155Z,5.60
2023-05-04T17:11:23.988Z,4.90
2023-05-04T17:13:53.521Z,5.20
2023-05-04T17:16:23.142Z,5.00
2023-05-04T17:18:52.741Z,5.20
2023-05-04T17:21:22.322Z,6.10
2023-05-04T17:23:52.018Z,8.20
2023-05-04T17:26:21.774Z,8.40
2023-05-04T17:28:51.862Z,7.40
2023-05-04T17:31:21.308Z,6.60
2023-05-04T17:33:51.411Z,7.40
2023-05-04T17:36:20.895Z,6.80
2023-05-04T17:38:50.391Z,6.30
2023-05-04T17:41:19.917Z,6.30
2023-05-04T17:43:50.393Z,6.60
2023-05-04T17:46:21.818Z,6.80
2023-05-04T17:48:53.608Z,6.70
2023-05-04T17:51:23.138Z,7.70
2023-05-04T17:53:52.643Z,7.20
2023-05-04T17:56:22.152Z,8.30
2023-05-04T17:58:51.611Z,6.90
2023-05-04T18:01:21.765Z,6.80
2023-05-04T18:03:52.438Z,6.60
2023-05-04T18:06:21.964Z,6.40
2023-05-04T18:08:51.575Z,6.00
2023-05-04T18:11:21.026Z,5.50
2023-05-04T18:13:51.671Z,6.40
2023-05-04T18:16:21.230Z,6.30
2023-05-04T18:18:53.885Z,6.60
2023-05-04T18:21:23.609Z,7.20
2023-05-04T18:23:53.100Z,6.50
2023-05-04T18:26:22.954Z,7.00
2023-05-04T18:28:52.583Z,6.80
2023-05-04T18:31:23.460Z,6.10
2023-05-04T18:33:52.942Z,6.90
2023-05-04T18:36:22.653Z,8.10
2023-05-04T18:38:53.406Z,7.00
2023-05-04T18:41:25.144Z,6.40
2023-05-04T18:43:57.731Z,6.00
2023-05-04T18:46:27.795Z,6.10
2023-05-04T18:48:57.245Z,6.20
2023-05-04T18:51:28.038Z,6.30
2023-05-04T18:53:58.139Z,6.10
2023-05-04T18:56:27.550Z,6.40
2023-05-04T18:58:56.918Z,5.60
2023-05-04T19:01:27.979Z,5.00
2023-05-04T19:03:57.420Z,6.10
2023-05-04T19:06:26.847Z,6.40
2023-05-04T19:08:56.240Z,6.70
2023-05-04T19:11:25.920Z,7.00
2023-05-04T19:13:56.413Z,6.30
2023-05-04T19:16:28.417Z,6.20
2023-05-04T19:18:58.031Z,6.40
2023-05-04T19:21:28.611Z,5.80
2023-05-04T19:23:58.215Z,6.50
2023-05-04T19:26:27.618Z,7.30
2023-05-04T19:28:57.050Z,6.50
2023-05-04T19:31:27.552Z,6.40
2023-05-04T19:33:56.932Z,6.80
2023-05-04T19:36:27.640Z,6.30
2023-05-04T19:38:58.141Z,5.80
2023-05-04T19:41:27.628Z,5.40
2023-05-04T19:43:57.131Z,6.10
2023-05-04T19:46:26.986Z,6.10
2023-05-04T19:48:56.301Z,5.30
2023-05-04T19:51:25.752Z,5.60
2023-05-04T19:53:55.710Z,5.90
2023-05-04T19:56:25.221Z,5.80
2023-05-04T19:58:55.130Z,6.60
2023-05-04T20:01:24.990Z,6.70
2023-05-04T20:03:54.821Z,5.40
2023-05-04T20:06:24.707Z,5.00
2023-05-04T20:08:55.192Z,5.50
2023-05-04T20:11:24.945Z,6.30
2023-05-04T20:13:55.891Z,8.10
2023-05-04T20:16:26.199Z,7.50
2023-05-04T20:18:57.081Z,7.40
2023-05-04T20:21:26.522Z,8.00
2023-05-04T20:23:56.218Z,6.40
2023-05-04T20:26:25.672Z,6.00
2023-05-04T20:28:55.240Z,6.20
2023-05-04T20:31:24.617Z,7.10
2023-05-04T20:33:54.061Z,8.60
2023-05-04T20:36:23.523Z,11.80
2023-05-04T20:38:54.625Z,13.30
2023-05-04T20:41:24.547Z,17.80
2023-05-04T20:43:54.059Z,20.00
2023-05-04T20:46:23.614Z,18.00
2023-05-04T20:48:53.490Z,13.50
2023-05-04T20:51:23.230Z,11.00
2023-05-04T20:53:53.266Z,9.50
2023-05-04T20:56:22.773Z,9.20
2023-05-04T20:58:52.345Z,9.30
2023-05-04T21:01:21.834Z,9.60
2023-05-04T21:03:51.414Z,10.40
2023-05-04T21:06:24.476Z,10.10
2023-05-04T21:08:53.953Z,10.00
2023-05-04T21:11:23.290Z,8.70
2023-05-04T21:13:52.918Z,8.70
2023-05-04T21:16:22.469Z,9.60
2023-05-04T21:18:52.051Z,8.60
2023-05-04T21:21:21.508Z,9.60
2023-05-04T21:23:53.077Z,8.40
2023-05-04T21:26:22.352Z,8.90
2023-05-04T21:28:51.853Z,8.60
2023-05-04T21:31:21.257Z,9.20
2023-05-04T21:33:51.480Z,8.20
2023-05-04T21:36:22.054Z,9.10
2023-05-04T21:38:51.518Z,9.80
2023-05-04T21:41:22.020Z,9.70
2023-05-04T21:43:51.417Z,9.80
2023-05-04T21:46:21.045Z,9.80
2023-05-04T21:48:51.990Z,9.90
2023-05-04T21:51:21.357Z,10.40
2023-05-04T21:53:50.965Z,9.70
2023-05-04T21:56:21.265Z,9.80
2023-05-04T21:58:50.704Z,9.80
2023-05-04T22:01:20.289Z,10.10
2023-05-04T22:03:49.657Z,9.40
2023-05-04T22:06:21.864Z,10.10
2023-05-04T22:08:51.230Z,9.90
2023-05-04T22:11:20.680Z,10.80
2023-05-04T22:13:50.048Z,10.90
2023-05-04T22:16:20.876Z,11.90
2023-05-04T22:18:50.312Z,11.40
2023-05-04T22:21:19.734Z,10.10
2023-05-04T22:23:49.168Z,11.00
2023-05-04T22:26:18.639Z,11.90
2023-05-04T22:28:48.272Z,11.90
2023-05-04T22:31:17.720Z,12.90
2023-05-04T22:33:47.244Z,14.30
2023-05-04T22:36:17.324Z,14.70
2023-05-04T22:38:46.917Z,14.90
2023-05-04T22:41:16.322Z,13.70
2023-05-04T22:43:45.737Z,15.00
2023-05-04T22:46:17.139Z,15.60
2023-05-04T22:48:49.697Z,16.30
2023-05-04T22:51:19.769Z,18.20
2023-05-04T22:53:49.084Z,18.90
2023-05-04T22:56:18.384Z,17.90
2023-05-04T22:58:48.518Z,18.10
2023-05-04T23:01:18.256Z,18.50
2023-05-04T23:03:48.924Z,18.90
2023-05-04T23:06:18.319Z,18.90
2023-05-04T23:08:47.653Z,21.30
2023-05-04T23:11:22.225Z,22.30
2023-05-04T23:13:51.592Z,19.70
2023-05-04T23:16:21.086Z,21.40
2023-05-04T23:18:50.817Z,22.40
2023-05-04T23:21:21.222Z,22.80
2023-05-04T23:23:53.662Z,21.30
2023-05-04T23:26:23.971Z,20.50
2023-05-04T23:28:53.769Z,19.30
2023-05-04T23:31:24.031Z,20.70
2023-05-04T23:33:53.404Z,21.60
2023-05-04T23:36:23.115Z,21.50
2023-05-04T23:38:52.876Z,19.10
2023-05-04T23:41:22.240Z,20.10
2023-05-04T23:43:51.713Z,18.20
2023-05-04T23:46:21.281Z,17.90
2023-05-04T23:48:50.648Z,16.40
2023-05-04T23:51:21.347Z,18.50
2023-05-04T23:53:50.794Z,19.10
2023-05-04T23:56:20.596Z,18.20
2023-05-04T23:58:49.917Z,17.90
